Time;durP1;ratioP1;P1;durP2;ratioP2;P2;SDS_P1;SDS_P2;PMS_P1;PMS_P2;Temp;Humidity;BMP_temperature;BMP_pressure;BME280_temperature;BME280_humidity;BME280_pressure;Samples;Min_cycle;Max_cycle;Signal;HPM_P1;HPM_P2
2023/03/27 00:00:41;;;;;;;6.47;2.97;;;1.50;1.00;;;;;;5033728;28;20804;-52
2023/03/27 00:03:12;;;;;;;11.27;2.37;;;1.50;1.00;;;;;;5034768;28;20432;-53
2023/03/27 00:05:38;;;;;;;10.10;1.70;;;1.40;1.00;;;;;;5034718;28;20873;-54
2023/03/27 00:08:04;;;;;;;15.57;1.87;;;1.30;1.00;;;;;;5034271;28;20426;-51
2023/03/27 00:10:30;;;;;;;6.10;1.57;;;1.20;1.00;;;;;;5034548;28;20184;-50
2023/03/27 00:12:56;;;;;;;4.60;1.57;;;1.20;1.00;;;;;;5034599;28;20424;-51
2023/03/27 00:15:22;;;;;;;4.47;1.73;;;1.20;1.00;;;;;;5034322;28;20415;-52
2023/03/27 00:17:50;;;;;;;10.73;1.57;;;1.10;1.00;;;;;;5034724;28;20423;-51
2023/03/27 00:20:20;;;;;;;9.13;1.57;;;1.10;1.00;;;;;;5034193;28;20463;-52
2023/03/27 00:22:48;;;;;;;6.30;1.40;;;1.10;1.00;;;;;;5034543;28;20406;-52
2023/03/27 00:25:15;;;;;;;4.33;1.50;;;1.10;1.00;;;;;;5034587;28;20421;-53
2023/03/27 00:27:42;;;;;;;3.17;1.43;;;1.00;1.00;;;;;;5034087;28;20430;-50
2023/03/27 00:30:09;;;;;;;6.07;1.70;;;0.90;1.00;;;;;;5034378;28;20442;-50
2023/03/27 00:32:35;;;;;;;7.60;1.60;;;0.90;1.00;;;;;;5034341;28;20414;-50
2023/03/27 00:35:02;;;;;;;7.10;1.50;;;0.80;1.00;;;;;;5033910;28;20414;-51
2023/03/27 00:37:27;;;;;;;3.87;1.30;;;0.80;1.00;;;;;;5034093;28;20414;-52
2023/03/27 00:39:54;;;;;;;3.83;1.50;;;0.80;1.00;;;;;;5033753;28;20520;-52
2023/03/27 00:42:21;;;;;;;6.40;1.57;;;0.70;1.00;;;;;;5032965;28;20186;-52
2023/03/27 00:44:51;;;;;;;5.00;1.60;;;0.70;1.00;;;;;;5033748;28;20548;-51
2023/03/27 00:47:29;;;;;;;5.37;1.50;;;0.70;1.00;;;;;;5034045;28;20414;-51
2023/03/27 00:49:56;;;;;;;6.77;1.50;;;0.70;1.00;;;;;;5034166;28;20445;-52
2023/03/27 00:52:30;;;;;;;7.07;1.47;;;0.80;1.00;;;;;;5033553;28;20429;-52
2023/03/27 00:54:59;;;;;;;3.20;1.40;;;0.70;1.00;;;;;;5033737;28;20967;-52
2023/03/27 00:57:25;;;;;;;9.53;1.97;;;0.80;1.00;;;;;;5033937;28;20772;-51
2023/03/27 00:59:53;;;;;;;3.93;1.73;;;0.80;1.00;;;;;;5033989;28;20549;-51
2023/03/27 01:02:20;;;;;;;15.53;2.30;;;0.80;1.00;;;;;;5034320;28;20266;-51
2023/03/27 01:04:47;;;;;;;3.33;1.60;;;0.80;1.00;;;;;;5033511;28;20449;-52
2023/03/27 01:07:14;;;;;;;8.17;2.20;;;0.80;1.00;;;;;;5033972;28;20418;-52
2023/03/27 01:09:39;;;;;;;6.83;1.63;;;0.70;1.00;;;;;;5033838;28;20425;-51
2023/03/27 01:12:42;;;;;;;6.57;2.17;;;0.70;1.00;;;;;;5033668;28;20464;-52
2023/03/27 01:15:33;;;;;;;9.67;1.93;;;0.70;1.00;;;;;;5033367;28;20183;-51
2023/03/27 01:18:07;;;;;;;4.03;1.67;;;0.80;1.00;;;;;;5023115;28;20430;-52
2023/03/27 01:20:50;;;;;;;7.20;1.63;;;0.80;1.00;;;;;;5033526;28;20451;-51
2023/03/27 01:23:41;;;;;;;2.37;1.47;;;0.80;1.00;;;;;;5033807;28;20752;-51
2023/03/27 01:26:28;;;;;;;7.03;2.10;;;0.70;1.00;;;;;;5033803;28;20406;-51
2023/03/27 01:28:53;;;;;;;2.80;1.27;;;0.70;1.00;;;;;;5033652;28;20401;-51
2023/03/27 01:31:39;;;;;;;2.80;1.33;;;0.60;1.00;;;;;;5033457;28;20421;-51
2023/03/27 01:34:28;;;;;;;5.33;1.73;;;0.60;1.00;;;;;;5033449;28;20234;-51
2023/03/27 01:37:17;;;;;;;14.60;2.10;;;0.60;1.00;;;;;;5033906;28;20443;-51
2023/03/27 01:39:53;;;;;;;9.07;1.53;;;0.60;1.00;;;;;;5033521;28;20481;-52
2023/03/27 01:42:28;;;;;;;6.47;1.80;;;0.60;1.00;;;;;;5033112;28;20773;-51
2023/03/27 01:45:05;;;;;;;6.50;1.43;;;0.60;1.00;;;;;;5033161;28;20969;-52
2023/03/27 01:48:00;;;;;;;2.90;1.70;;;0.60;1.00;;;;;;5033267;28;20964;-52
2023/03/27 01:50:49;;;;;;;2.50;1.40;;;0.50;1.00;;;;;;5033341;28;20874;-51
2023/03/27 01:53:31;;;;;;;3.70;1.67;;;0.50;1.00;;;;;;5032894;28;20422;-52
2023/03/27 01:56:03;;;;;;;3.57;1.23;;;0.50;1.00;;;;;;5033256;28;20418;-51
2023/03/27 01:58:34;;;;;;;7.50;1.50;;;0.60;1.00;;;;;;5033063;28;20398;-51
2023/03/27 02:01:01;;;;;;;8.83;1.67;;;0.60;1.00;;;;;;5033469;28;20469;-51
2023/03/27 02:03:40;;;;;;;7.43;1.87;;;0.60;1.00;;;;;;5033152;28;20817;-51
2023/03/27 02:06:15;;;;;;;6.30;1.67;;;0.60;1.00;;;;;;5033344;28;20418;-51
2023/03/27 02:09:07;;;;;;;6.23;1.60;;;0.60;1.00;;;;;;5033141;28;20410;-51
2023/03/27 02:11:42;;;;;;;7.97;1.63;;;0.60;1.00;;;;;;5033430;28;20901;-52
2023/03/27 02:14:15;;;;;;;5.63;1.60;;;0.60;1.00;;;;;;5036894;28;20442;-51
2023/03/27 02:16:46;;;;;;;4.57;1.63;;;0.60;1.00;;;;;;5036687;28;20410;-51
2023/03/27 02:19:19;;;;;;;10.40;1.83;;;0.60;1.00;;;;;;5036328;28;20450;-52
2023/03/27 02:21:46;;;;;;;4.90;1.57;;;0.60;1.00;;;;;;5036810;28;20506;-52
2023/03/27 02:24:14;;;;;;;7.30;1.60;;;0.60;1.00;;;;;;5036757;28;20414;-52
2023/03/27 02:26:40;;;;;;;6.53;1.80;;;0.50;1.00;;;;;;5036472;28;20514;-51
2023/03/27 02:29:30;;;;;;;5.70;1.77;;;0.50;1.00;;;;;;5036514;28;20505;-52
2023/03/27 02:32:08;;;;;;;4.40;1.40;;;0.40;1.00;;;;;;5036680;28;20210;-51
2023/03/27 02:35:09;;;;;;;3.03;1.17;;;0.40;1.00;;;;;;5036456;28;20413;-51
2023/03/27 02:37:56;;;;;;;10.23;2.10;;;0.40;1.00;;;;;;5036471;28;20418;-51
2023/03/27 02:40:36;;;;;;;8.60;1.80;;;0.40;15.20;;;;;;5036421;28;20457;-52
2023/03/27 02:43:27;;;;;;;6.87;1.70;;;0.40;29.50;;;;;;5036197;28;20898;-51
2023/03/27 02:45:53;;;;;;;4.00;1.50;;;0.40;68.30;;;;;;5036270;28;20442;-52
2023/03/27 02:48:26;;;;;;;10.00;1.63;;;0.50;71.30;;;;;;5036456;28;20436;-51
2023/03/27 02:51:02;;;;;;;11.30;2.37;;;0.50;58.10;;;;;;5036223;28;20577;-51
2023/03/27 02:53:32;;;;;;;5.30;1.97;;;0.50;97.20;;;;;;5036352;28;20402;-51
2023/03/27 02:56:00;;;;;;;6.30;1.63;;;0.50;99.90;;;;;;5036537;28;20453;-51
2023/03/27 02:58:56;;;;;;;8.60;2.00;;;0.50;99.90;;;;;;5036220;28;20414;-51
2023/03/27 03:01:25;;;;;;;8.57;2.20;;;0.50;99.90;;;;;;5035809;28;20480;-51
2023/03/27 03:03:58;;;;;;;4.90;1.73;;;0.50;99.90;;;;;;5035995;28;20457;-51
2023/03/27 03:06:30;;;;;;;12.60;1.57;;;0.40;99.90;;;;;;5035829;28;20497;-52
2023/03/27 03:09:01;;;;;;;9.20;2.93;;;0.40;99.90;;;;;;5036271;28;20456;-51
2023/03/27 03:11:28;;;;;;;5.00;1.90;;;0.40;99.90;;;;;;5036041;28;20493;-51
2023/03/27 03:13:54;;;;;;;9.50;1.90;;;0.30;99.90;;;;;;5035846;28;20449;-52
2023/03/27 03:16:21;;;;;;;9.40;2.00;;;0.30;99.90;;;;;;5035736;28;20417;-51
2023/03/27 03:18:47;;;;;;;11.87;2.40;;;0.30;99.90;;;;;;5035512;28;20549;-52
2023/03/27 03:21:13;;;;;;;6.53;2.03;;;0.40;99.90;;;;;;5035589;28;20810;-51
2023/03/27 03:23:38;;;;;;;7.50;1.80;;;0.40;99.90;;;;;;5034290;28;20230;-51
2023/03/27 03:26:05;;;;;;;6.27;2.03;;;0.40;99.90;;;;;;5035860;28;20221;-51
2023/03/27 03:28:33;;;;;;;8.33;2.00;;;0.40;99.90;;;;;;5035804;28;20211;-53
2023/03/27 03:31:01;;;;;;;10.90;2.33;;;0.40;99.90;;;;;;5035465;28;20407;-51
2023/03/27 03:33:28;;;;;;;7.13;2.10;;;0.50;99.90;;;;;;5035338;28;20849;-51
2023/03/27 03:35:57;;;;;;;8.07;2.30;;;0.50;99.90;;;;;;5035056;28;20437;-51
2023/03/27 03:38:26;;;;;;;3.70;1.80;;;0.50;99.90;;;;;;5035087;28;20513;-52
2023/03/27 03:40:57;;;;;;;6.67;1.87;;;0.50;99.90;;;;;;5035581;28;20501;-52
2023/03/27 03:43:25;;;;;;;7.63;2.93;;;0.60;99.90;;;;;;5034762;28;20484;-52
2023/03/27 03:45:51;;;;;;;3.33;2.20;;;0.50;99.90;;;;;;5035266;28;20420;-51
2023/03/27 03:48:18;;;;;;;7.03;2.03;;;0.50;99.90;;;;;;5035137;28;20427;-52
2023/03/27 03:50:45;;;;;;;5.50;1.80;;;0.50;99.90;;;;;;5035271;28;20488;-51
2023/03/27 03:53:12;;;;;;;4.10;1.97;;;0.50;99.90;;;;;;5034788;28;20417;-51
2023/03/27 03:55:37;;;;;;;6.17;2.00;;;0.50;1.00;;;;;;5035026;28;20759;-51
2023/03/27 03:58:04;;;;;;;9.20;2.30;;;0.50;1.00;;;;;;5035281;28;20418;-51
2023/03/27 04:00:30;;;;;;;7.67;2.43;;;0.60;1.00;;;;;;5034567;28;20225;-51
2023/03/27 04:02:56;;;;;;;5.40;2.13;;;0.60;1.00;;;;;;5034696;28;20984;-50
2023/03/27 04:05:23;;;;;;;7.83;2.57;;;0.60;1.00;;;;;;5034832;28;20446;-51
2023/03/27 04:07:48;;;;;;;5.23;2.73;;;0.70;1.00;;;;;;5034247;28;20935;-51
2023/03/27 04:10:14;;;;;;;11.90;3.00;;;0.70;1.00;;;;;;5034385;28;20516;-51
2023/03/27 04:12:45;;;;;;;8.30;3.23;;;0.70;1.00;;;;;;5034669;28;20184;-50
2023/03/27 04:15:11;;;;;;;8.93;3.33;;;0.70;91.70;;;;;;5034712;28;20414;-51
2023/03/27 04:17:37;;;;;;;8.43;3.63;;;0.70;99.90;;;;;;5034417;28;20424;-52
2023/03/27 04:20:05;;;;;;;12.90;3.40;;;0.70;99.90;;;;;;5034244;28;20718;-53
2023/03/27 04:22:36;;;;;;;11.03;2.63;;;0.70;99.90;;;;;;5034589;28;20843;-52
2023/03/27 04:25:05;;;;;;;13.00;3.40;;;0.70;99.90;;;;;;5034326;28;20424;-52
2023/03/27 04:27:31;;;;;;;7.40;2.60;;;0.70;99.90;;;;;;5034844;28;20424;-51
2023/03/27 04:29:56;;;;;;;9.33;2.70;;;0.70;1.00;;;;;;5033869;28;20839;-51
2023/03/27 04:32:25;;;;;;;7.40;3.00;;;0.60;1.00;;;;;;5033932;28;20183;-51
2023/03/27 04:34:51;;;;;;;6.77;2.60;;;0.60;1.00;;;;;;5033868;28;20457;-51
2023/03/27 04:37:17;;;;;;;4.90;2.60;;;0.60;1.00;;;;;;5034118;28;20477;-51
2023/03/27 04:39:45;;;;;;;10.73;2.70;;;0.60;99.90;;;;;;5034219;28;20465;-51
2023/03/27 04:42:12;;;;;;;8.43;3.10;;;0.60;99.90;;;;;;5034084;28;20902;-51
2023/03/27 04:44:38;;;;;;;12.77;2.70;;;0.60;99.90;;;;;;5034424;28;20469;-52
2023/03/27 04:47:05;;;;;;;9.60;2.80;;;0.60;1.00;;;;;;5034269;28;20939;-51
2023/03/27 04:49:38;;;;;;;7.43;2.50;;;0.70;17.70;;;;;;5033847;28;20425;-52
2023/03/27 04:52:07;;;;;;;9.33;2.10;;;0.70;1.00;;;;;;5033615;28;20752;-51
2023/03/27 04:54:33;;;;;;;7.40;2.20;;;0.70;76.80;;;;;;5033869;28;20526;-51
2023/03/27 04:57:00;;;;;;;6.77;2.27;;;0.70;99.90;;;;;;5033688;28;20946;-49
2023/03/27 04:59:30;;;;;;;6.17;2.37;;;0.70;1.00;;;;;;5034217;28;20464;-50
2023/03/27 05:01:57;;;;;;;6.47;2.43;;;0.70;1.00;;;;;;5033759;28;20512;-50
2023/03/27 05:04:25;;;;;;;8.07;2.30;;;0.70;1.00;;;;;;5034008;28;20406;-49
2023/03/27 05:06:52;;;;;;;7.50;2.57;;;0.70;1.00;;;;;;5033938;28;20950;-50
2023/03/27 05:09:18;;;;;;;11.83;2.47;;;0.70;83.60;;;;;;5033562;28;20448;-50
2023/03/27 05:11:48;;;;;;;4.70;2.20;;;0.80;99.90;;;;;;5033373;28;20969;-51
2023/03/27 05:14:21;;;;;;;9.13;2.40;;;0.80;99.90;;;;;;5033705;28;20412;-51
2023/03/27 05:16:51;;;;;;;6.57;2.50;;;0.80;25.90;;;;;;5033339;28;20409;-51
2023/03/27 05:19:21;;;;;;;6.07;2.50;;;0.80;1.00;;;;;;5033594;28;20459;-52
2023/03/27 05:21:46;;;;;;;6.50;2.13;;;0.80;1.00;;;;;;5033683;28;20519;-51
2023/03/27 05:24:14;;;;;;;8.93;2.47;;;0.90;1.00;;;;;;5033461;28;20506;-51
2023/03/27 05:26:40;;;;;;;10.20;2.43;;;0.90;99.90;;;;;;5033410;28;20184;-51
2023/03/27 05:29:07;;;;;;;6.33;2.40;;;0.90;99.90;;;;;;5033425;28;20426;-52
2023/03/27 05:31:34;;;;;;;5.40;2.27;;;0.90;99.90;;;;;;5033600;28;20433;-51
2023/03/27 05:33:59;;;;;;;8.47;2.73;;;1.00;1.00;;;;;;5033226;28;20914;-52
2023/03/27 05:36:27;;;;;;;14.70;2.50;;;1.00;99.90;;;;;;5033127;28;20421;-51
2023/03/27 05:38:53;;;;;;;8.33;2.70;;;1.00;99.90;;;;;;5032826;28;20213;-51
2023/03/27 05:41:19;;;;;;;7.00;2.60;;;1.10;1.00;;;;;;5033629;28;20500;-51
2023/03/27 05:43:45;;;;;;;5.53;2.80;;;1.10;1.00;;;;;;5032831;28;20775;-51
2023/03/27 05:46:12;;;;;;;9.90;2.63;;;1.10;1.00;;;;;;5033194;28;20918;-51
2023/03/27 05:48:38;;;;;;;7.77;2.47;;;1.10;99.90;;;;;;5036730;28;20721;-51
2023/03/27 05:51:05;;;;;;;5.97;3.10;;;1.10;1.00;;;;;;5037379;28;20417;-52
2023/03/27 05:53:30;;;;;;;13.33;2.87;;;1.10;99.90;;;;;;5037560;28;20180;-51
2023/03/27 05:55:56;;;;;;;9.63;2.30;;;1.20;99.90;;;;;;5037492;28;20890;-51
2023/03/27 05:58:22;;;;;;;8.57;2.50;;;1.30;1.00;;;;;;5037044;28;20655;-51
2023/03/27 06:00:49;;;;;;;7.47;2.70;;;1.20;1.00;;;;;;5036742;28;20773;-51
2023/03/27 06:03:15;;;;;;;5.20;2.43;;;1.30;1.00;;;;;;5036991;28;20251;-51
2023/03/27 06:05:41;;;;;;;12.50;2.60;;;1.30;1.00;;;;;;5037168;28;20908;-51
2023/03/27 06:08:09;;;;;;;7.67;2.60;;;1.40;1.00;;;;;;5037071;28;20421;-52
2023/03/27 06:10:38;;;;;;;5.03;2.70;;;1.40;99.90;;;;;;5036878;28;20433;-51
2023/03/27 06:13:07;;;;;;;6.50;2.40;;;1.50;99.90;;;;;;5036908;28;20422;-51
2023/03/27 06:15:36;;;;;;;8.73;2.50;;;1.60;1.00;;;;;;5036670;28;20916;-51
2023/03/27 06:18:02;;;;;;;4.60;2.63;;;1.60;1.00;;;;;;5036853;28;20439;-51
2023/03/27 06:20:28;;;;;;;11.40;2.57;;;1.70;99.90;;;;;;5036741;28;20464;-52
2023/03/27 06:22:58;;;;;;;6.23;2.23;;;1.80;1.00;;;;;;5036369;28;20765;-51
2023/03/27 06:25:25;;;;;;;5.73;2.30;;;1.80;99.90;;;;;;5036646;28;20173;-51
2023/03/27 06:27:51;;;;;;;8.93;2.43;;;1.90;99.90;;;;;;5036894;28;20418;-52
2023/03/27 06:30:20;;;;;;;13.57;3.40;;;2.00;1.00;;;;;;5037053;28;20949;-51
2023/03/27 06:32:48;;;;;;;7.87;2.00;;;2.20;1.00;;;;;;5036575;28;20786;-52
2023/03/27 06:35:14;;;;;;;4.73;2.00;;;2.30;99.90;;;;;;5036318;28;20509;-52
2023/03/27 06:37:41;;;;;;;8.33;2.33;;;2.50;1.00;;;;;;5036271;28;20421;-51
2023/03/27 06:40:19;;;;;;;12.57;2.43;;;2.70;1.00;;;;;;5036281;28;20515;-52
2023/03/27 06:42:52;;;;;;;7.17;2.40;;;2.90;99.90;;;;;;5036653;28;20423;-52
2023/03/27 06:45:18;;;;;;;4.23;1.97;;;3.10;99.90;;;;;;5036211;28;20469;-51
2023/03/27 06:47:49;;;;;;;7.07;2.00;;;3.40;99.90;;;;;;5036545;28;20421;-52
2023/03/27 06:50:15;;;;;;;2.23;1.47;;;3.60;99.90;;;;;;5036094;28;20440;-52
2023/03/27 06:52:41;;;;;;;6.80;1.80;;;3.80;99.90;;;;;;5036243;28;20448;-53
2023/03/27 06:55:07;;;;;;;4.87;2.00;;;3.90;38.60;;;;;;5036050;28;20976;-52
2023/03/27 06:57:33;;;;;;;3.53;1.50;;;3.80;19.90;;;;;;5035995;28;20270;-53
2023/03/27 06:59:58;;;;;;;8.87;2.50;;;3.60;24.90;;;;;;5034505;28;20552;-51
2023/03/27 07:02:24;;;;;;;6.60;1.57;;;3.30;54.30;;;;;;5034420;28;20191;-51
2023/03/27 07:04:50;;;;;;;6.33;1.60;;;3.10;80.40;;;;;;5034755;28;20313;-51
2023/03/27 07:07:15;;;;;;;2.30;1.50;;;2.90;99.90;;;;;;5034264;28;20190;-51
2023/03/27 07:09:41;;;;;;;7.60;1.87;;;2.80;99.90;;;;;;5033744;28;20417;-52
2023/03/27 07:12:07;;;;;;;5.83;1.50;;;2.90;99.90;;;;;;5033565;28;20186;-52
2023/03/27 07:14:34;;;;;;;7.17;1.77;;;3.40;99.90;;;;;;5034415;28;20189;-52
2023/03/27 07:16:59;;;;;;;4.63;1.47;;;3.90;99.90;;;;;;5034553;28;20425;-52
2023/03/27 07:19:26;;;;;;;4.63;1.90;;;4.60;67.20;;;;;;5033493;28;20810;-52
2023/03/27 07:21:52;;;;;;;6.60;1.60;;;5.00;1.00;;;;;;5033992;28;20274;-51
2023/03/27 07:24:18;;;;;;;8.30;1.50;;;4.80;1.00;;;;;;5033769;28;20443;-51
2023/03/27 07:26:43;;;;;;;7.13;1.60;;;4.90;1.00;;;;;;5033501;28;20428;-50
2023/03/27 07:29:09;;;;;;;6.97;2.00;;;5.40;1.00;;;;;;5033830;28;20186;-52
2023/03/27 07:31:36;;;;;;;4.97;1.90;;;6.00;1.00;;;;;;5033670;28;20178;-53
2023/03/27 07:34:02;;;;;;;5.77;1.40;;;6.50;1.00;;;;;;5034105;28;20423;-50
2023/03/27 07:36:27;;;;;;;8.20;1.70;;;6.50;1.00;;;;;;5033408;28;21018;-50
2023/03/27 07:38:53;;;;;;;2.77;1.50;;;6.00;1.00;;;;;;5033551;28;20280;-50
2023/03/27 07:41:19;;;;;;;6.33;1.87;;;6.00;1.00;;;;;;5033538;28;20561;-50
2023/03/27 07:43:45;;;;;;;4.83;1.83;;;6.30;1.00;;;;;;5029859;28;20245;-48
2023/03/27 07:46:11;;;;;;;4.13;1.50;;;6.70;1.00;;;;;;5031517;28;20413;-48
2023/03/27 07:48:37;;;;;;;4.47;1.50;;;7.40;1.00;;;;;;5033281;28;20183;-50
2023/03/27 07:51:04;;;;;;;4.05;1.70;;;8.10;1.00;;;;;;5033128;28;20443;-49
2023/03/27 07:53:30;;;;;;;5.63;1.93;;;8.20;1.00;;;;;;5033739;28;20192;-49
2023/03/27 07:55:57;;;;;;;5.40;1.50;;;8.20;1.00;;;;;;5032792;28;20422;-49
2023/03/27 07:58:23;;;;;;;8.90;2.10;;;8.20;1.00;;;;;;5032249;28;20409;-49
2023/03/27 08:00:51;;;;;;;4.10;1.50;;;8.20;1.00;;;;;;5032891;28;20201;-49
2023/03/27 08:03:18;;;;;;;2.63;1.43;;;7.80;1.00;;;;;;5032710;28;20467;-50
2023/03/27 08:05:51;;;;;;;4.03;1.70;;;7.40;1.00;;;;;;5032658;28;20929;-51
2023/03/27 08:08:16;;;;;;;4.67;1.80;;;7.10;1.00;;;;;;5033051;28;20448;-49
2023/03/27 08:10:42;;;;;;;6.13;1.40;;;6.80;1.00;;;;;;5032093;28;20901;-49
2023/03/27 08:13:08;;;;;;;4.80;1.40;;;7.20;1.00;;;;;;5033239;28;20231;-49
2023/03/27 08:15:34;;;;;;;5.17;1.50;;;7.50;1.00;;;;;;5032824;28;20190;-50
2023/03/27 08:18:00;;;;;;;3.17;1.10;;;7.40;1.00;;;;;;5032269;28;20420;-51
2023/03/27 08:20:25;;;;;;;6.80;1.30;;;7.80;1.00;;;;;;5032948;28;20906;-50
2023/03/27 08:22:51;;;;;;;8.93;1.40;;;8.00;1.00;;;;;;5034068;28;20183;-50
2023/03/27 08:25:17;;;;;;;8.63;1.20;;;8.10;1.00;;;;;;5034375;28;20184;-50
2023/03/27 08:27:43;;;;;;;6.10;1.20;;;8.50;1.00;;;;;;5033412;28;20405;-51
2023/03/27 08:30:11;;;;;;;7.90;1.37;;;8.00;1.00;;;;;;5034079;28;20189;-50
2023/03/27 08:32:38;;;;;;;3.10;1.47;;;7.90;1.00;;;;;;5033841;28;20427;-50
2023/03/27 08:35:06;;;;;;;1.63;1.10;;;7.60;1.00;;;;;;5033969;28;20428;-52
2023/03/27 08:37:32;;;;;;;5.33;1.47;;;7.50;1.00;;;;;;5034199;28;20424;-52
2023/03/27 08:39:57;;;;;;;3.07;1.23;;;7.90;1.00;;;;;;5033601;28;20544;-50
2023/03/27 08:42:35;;;;;;;4.53;1.20;;;8.50;1.00;;;;;;5033872;28;20186;-51
2023/03/27 08:45:19;;;;;;;4.47;1.20;;;8.70;1.00;;;;;;5033638;28;20237;-50
2023/03/27 08:48:21;;;;;;;2.73;1.30;;;8.30;1.00;;;;;;5031849;28;20409;-50
2023/03/27 08:50:57;;;;;;;3.90;1.20;;;8.00;1.00;;;;;;5030319;28;21031;-50
2023/03/27 08:53:47;;;;;;;3.13;1.37;;;7.40;1.00;;;;;;5032070;28;20455;-51
2023/03/27 08:56:16;;;;;;;3.20;1.20;;;7.10;1.00;;;;;;5032146;28;20504;-50
2023/03/27 08:58:43;;;;;;;5.37;1.30;;;6.80;1.00;;;;;;5032128;28;20412;-49
2023/03/27 09:01:30;;;;;;;7.90;1.90;;;7.00;1.00;;;;;;5031859;28;20511;-50
2023/03/27 09:04:20;;;;;;;3.73;1.20;;;7.10;1.00;;;;;;5031886;28;20425;-51
2023/03/27 09:06:49;;;;;;;4.30;1.30;;;7.20;1.00;;;;;;5031941;28;20425;-51
2023/03/27 09:09:45;;;;;;;3.40;1.40;;;7.40;1.00;;;;;;5030940;28;20285;-52
2023/03/27 09:12:30;;;;;;;4.70;1.40;;;7.90;1.00;;;;;;5030853;28;20468;-53
2023/03/27 09:15:16;;;;;;;5.73;1.20;;;8.40;1.00;;;;;;5032129;28;20183;-52
2023/03/27 09:17:50;;;;;;;2.97;0.90;;;8.70;1.00;;;;;;5031071;28;20416;-52
2023/03/27 09:20:50;;;;;;;3.13;1.10;;;9.10;1.00;;;;;;5032049;28;20814;-52
2023/03/27 09:23:26;;;;;;;4.07;1.23;;;9.10;1.00;;;;;;5031226;28;20940;-52
2023/03/27 09:26:00;;;;;;;8.60;1.23;;;8.50;1.00;;;;;;5032000;28;20403;-53
2023/03/27 09:28:35;;;;;;;4.13;1.53;;;8.20;1.00;;;;;;5031582;28;20409;-52
2023/03/27 09:31:23;;;;;;;2.70;1.00;;;8.30;1.00;;;;;;5032031;28;20401;-52
2023/03/27 09:33:49;;;;;;;1.80;1.30;;;8.10;1.00;;;;;;5031439;28;20429;-52
2023/03/27 09:36:16;;;;;;;3.30;0.90;;;8.00;1.00;;;;;;5031740;28;20425;-52
2023/03/27 09:38:45;;;;;;;6.37;1.03;;;8.10;1.00;;;;;;5031528;28;20829;-51
2023/03/27 09:41:15;;;;;;;2.63;0.93;;;8.00;1.00;;;;;;5031390;28;20421;-51
2023/03/27 09:43:51;;;;;;;2.53;0.87;;;7.80;1.00;;;;;;5031796;28;20483;-52
2023/03/27 09:46:18;;;;;;;2.20;1.10;;;7.70;1.00;;;;;;5031930;28;20417;-53
2023/03/27 09:49:06;;;;;;;3.57;1.03;;;7.70;1.00;;;;;;5031343;28;20456;-51
2023/03/27 09:51:39;;;;;;;5.23;1.00;;;7.70;1.00;;;;;;5027071;28;20890;-51
2023/03/27 09:54:06;;;;;;;8.93;1.07;;;7.80;1.00;;;;;;5031215;28;20486;-52
2023/03/27 09:56:38;;;;;;;1.43;0.70;;;7.80;1.00;;;;;;5031468;28;20974;-51
2023/03/27 09:59:19;;;;;;;3.00;0.90;;;7.80;1.00;;;;;;5031476;28;20457;-51
2023/03/27 10:01:50;;;;;;;2.10;1.17;;;7.70;1.00;;;;;;5031515;28;20417;-51
2023/03/27 10:04:19;;;;;;;1.83;0.87;;;7.80;1.00;;;;;;5030930;28;20423;-51
2023/03/27 10:06:47;;;;;;;3.20;1.30;;;7.90;1.00;;;;;;5031796;28;20831;-52
2023/03/27 10:09:29;;;;;;;5.13;1.13;;;8.00;1.00;;;;;;5030888;28;20811;-51
2023/03/27 10:12:05;;;;;;;2.50;1.03;;;8.20;1.00;;;;;;5031393;28;21375;-51
2023/03/27 10:14:34;;;;;;;3.53;0.90;;;8.50;1.00;;;;;;5030745;28;20890;-53
2023/03/27 10:17:01;;;;;;;3.13;1.20;;;8.90;1.00;;;;;;5031487;28;20182;-52
2023/03/27 10:19:38;;;;;;;3.00;1.20;;;9.10;1.00;;;;;;5031013;28;20471;-52
2023/03/27 10:22:30;;;;;;;4.73;0.90;;;9.30;1.00;;;;;;5031264;28;20437;-53
2023/03/27 10:25:14;;;;;;;2.90;1.10;;;9.50;1.00;;;;;;5031681;28;20401;-52
2023/03/27 10:27:42;;;;;;;5.20;2.03;;;9.40;1.00;;;;;;5031453;28;20416;-52
2023/03/27 10:30:34;;;;;;;3.57;1.00;;;8.80;1.00;;;;;;5030673;28;20478;-53
2023/03/27 10:33:01;;;;;;;2.27;1.00;;;8.10;1.00;;;;;;5031680;28;20436;-52
2023/03/27 10:35:35;;;;;;;3.33;1.23;;;7.30;1.00;;;;;;5034534;28;20908;-49
2023/03/27 10:38:03;;;;;;;3.53;1.00;;;6.90;1.00;;;;;;5035218;28;20397;-49
2023/03/27 10:40:34;;;;;;;18.43;1.63;;;6.40;1.00;;;;;;5034364;28;20560;-49
2023/03/27 10:43:04;;;;;;;3.03;1.03;;;6.00;1.00;;;;;;5034710;28;20453;-50
2023/03/27 10:45:31;;;;;;;5.37;1.47;;;5.60;1.00;;;;;;5034554;28;20482;-51
2023/03/27 10:48:00;;;;;;;2.20;1.10;;;4.80;1.00;;;;;;5034192;28;20428;-50
2023/03/27 10:50:43;;;;;;;4.67;1.20;;;4.10;1.00;;;;;;5034272;28;20452;-51
2023/03/27 10:53:36;;;;;;;2.20;1.10;;;3.60;1.00;;;;;;5034196;28;20413;-50
2023/03/27 10:56:29;;;;;;;5.60;1.37;;;3.30;1.00;;;;;;5034917;28;20414;-51
2023/03/27 10:59:12;;;;;;;1.63;1.10;;;3.40;1.00;;;;;;5033857;28;21040;-50
2023/03/27 11:01:47;;;;;;;1.27;1.10;;;4.90;1.00;;;;;;5034509;28;20471;-49
2023/03/27 11:04:33;;;;;;;2.70;1.20;;;6.60;99.90;;;;;;5032818;28;20460;-48
2023/03/27 11:07:02;;;;;;;2.77;1.13;;;7.90;1.00;;;;;;5033884;28;20235;-47
2023/03/27 11:09:36;;;;;;;1.90;1.07;;;9.00;1.00;;;;;;5034213;28;20421;-49
2023/03/27 11:12:09;;;;;;;1.97;1.00;;;9.90;1.00;;;;;;5034278;28;20413;-49
2023/03/27 11:14:49;;;;;;;1.57;1.13;;;10.50;1.00;;;;;;5034133;28;20417;-49
2023/03/27 11:17:20;;;;;;;5.90;1.30;;;11.10;1.00;;;;;;5033396;28;20421;-49
2023/03/27 11:19:54;;;;;;;3.47;1.47;;;11.50;1.00;;;;;;5033679;28;20474;-50
2023/03/27 11:22:32;;;;;;;4.07;1.30;;;11.80;1.00;;;;;;5033800;28;20957;-50
2023/03/27 11:25:22;;;;;;;3.67;1.40;;;12.00;1.00;;;;;;5033880;28;20497;-49
2023/03/27 11:28:20;;;;;;;1.50;1.40;;;11.50;1.00;;;;;;5033589;28;20457;-49
2023/03/27 11:30:58;;;;;;;5.40;1.40;;;11.40;1.00;;;;;;5028582;28;20437;-49
2023/03/27 11:34:04;;;;;;;3.33;1.83;;;11.00;1.00;;;;;;5033607;28;20458;-49
2023/03/27 11:36:41;;;;;;;4.03;1.80;;;10.40;1.00;;;;;;5033770;28;20816;-50
2023/03/27 11:39:19;;;;;;;1.87;1.30;;;9.80;1.00;;;;;;5033488;28;20448;-49
2023/03/27 11:41:57;;;;;;;3.20;1.60;;;9.10;1.00;;;;;;5033434;28;20412;-49
2023/03/27 11:44:24;;;;;;;2.47;1.30;;;8.20;1.00;;;;;;5031696;28;20425;-50
2023/03/27 11:47:11;;;;;;;5.40;1.47;;;7.00;1.00;;;;;;5032193;28;20627;-49
2023/03/27 11:50:14;;;;;;;3.57;1.00;;;5.80;1.00;;;;;;5032684;28;20410;-49
2023/03/27 11:52:50;;;;;;;1.10;1.00;;;4.90;1.00;;;;;;5034317;28;20463;-49
2023/03/27 11:55:23;;;;;;;4.53;1.17;;;4.30;1.00;;;;;;5034465;28;20452;-49
2023/03/27 11:58:03;;;;;;;4.00;1.50;;;3.90;1.00;;;;;;5034555;28;20469;-49
2023/03/27 12:00:35;;;;;;;2.80;0.90;;;3.90;1.00;;;;;;5034248;28;20465;-50
2023/03/27 12:03:12;;;;;;;4.83;1.20;;;3.80;92.60;;;;;;5034792;28;20432;-49
2023/03/27 12:05:54;;;;;;;3.13;1.07;;;4.00;99.90;;;;;;5034239;28;20922;-49
2023/03/27 12:08:31;;;;;;;1.73;0.90;;;4.30;99.90;;;;;;5034505;28;20411;-48
2023/03/27 12:11:00;;;;;;;1.83;1.00;;;5.00;65.80;;;;;;5034182;28;20411;-47
2023/03/27 12:13:40;;;;;;;4.83;1.00;;;6.20;1.00;;;;;;5034348;28;20438;-47
2023/03/27 12:16:31;;;;;;;1.27;0.93;;;7.20;1.00;;;;;;5034056;28;20518;-48
2023/03/27 12:19:28;;;;;;;3.40;1.00;;;8.50;1.00;;;;;;5034156;28;20984;-48
2023/03/27 12:22:21;;;;;;;1.90;0.90;;;9.10;1.00;;;;;;5024998;28;20931;-48
2023/03/27 12:25:24;;;;;;;2.03;0.90;;;9.80;1.00;;;;;;5034092;28;20421;-48
2023/03/27 12:28:10;;;;;;;2.10;1.10;;;10.30;1.00;;;;;;5034348;28;20755;-48
2023/03/27 12:30:49;;;;;;;5.53;1.00;;;10.50;1.00;;;;;;5033639;28;20437;-49
2023/03/27 12:33:27;;;;;;;4.50;1.30;;;11.00;1.00;;;;;;5034122;28;20433;-49
2023/03/27 12:35:56;;;;;;;5.40;1.30;;;10.90;1.00;;;;;;5033721;28;20451;-49
2023/03/27 12:38:28;;;;;;;2.60;1.13;;;11.10;1.00;;;;;;5033870;28;20760;-49
2023/03/27 12:41:22;;;;;;;3.83;1.00;;;11.40;1.00;;;;;;5033916;28;20468;-48
2023/03/27 12:43:59;;;;;;;4.50;1.27;;;11.30;1.00;;;;;;5033455;28;20977;-49
2023/03/27 12:46:28;;;;;;;6.57;1.30;;;11.40;1.00;;;;;;5033613;28;20828;-49
2023/03/27 12:49:05;;;;;;;4.70;1.30;;;10.50;1.00;;;;;;5033809;28;20483;-48
2023/03/27 12:51:50;;;;;;;4.10;1.00;;;9.30;1.00;;;;;;5034045;28;20448;-48
2023/03/27 12:54:26;;;;;;;6.20;1.20;;;8.20;1.00;;;;;;5033598;28;20414;-48
2023/03/27 12:57:20;;;;;;;7.20;1.23;;;7.50;1.00;;;;;;5033277;28;20479;-48
2023/03/27 12:59:57;;;;;;;4.83;1.10;;;6.70;1.00;;;;;;5033439;28;20595;-48
2023/03/27 13:02:42;;;;;;;4.90;1.20;;;6.20;1.00;;;;;;5033653;28;20890;-47
2023/03/27 13:05:22;;;;;;;3.07;1.20;;;5.90;1.00;;;;;;5033328;28;20451;-49
2023/03/27 13:08:17;;;;;;;2.60;1.13;;;6.10;1.00;;;;;;5033199;28;20421;-47
2023/03/27 13:10:52;;;;;;;6.10;1.40;;;6.00;1.00;;;;;;5032469;28;20782;-50
2023/03/27 13:13:42;;;;;;;8.10;1.30;;;5.90;1.00;;;;;;5033255;28;20175;-50
2023/03/27 13:16:41;;;;;;;9.90;1.40;;;5.40;1.00;;;;;;5033574;28;20482;-50
2023/03/27 13:19:18;;;;;;;5.90;0.90;;;4.50;1.00;;;;;;5033079;28;20564;-50
2023/03/27 13:22:16;;;;;;;10.10;1.77;;;3.80;1.00;;;;;;5033401;28;20413;-50
2023/03/27 13:25:00;;;;;;;1.23;0.90;;;3.70;1.00;;;;;;5033468;28;20413;-49
2023/03/27 13:28:03;;;;;;;3.47;1.43;;;3.50;1.00;;;;;;5033405;28;20419;-50
2023/03/27 13:30:54;;;;;;;4.60;1.60;;;3.40;99.90;;;;;;5033272;28;20396;-49
2023/03/27 13:33:28;;;;;;;5.07;1.33;;;3.90;99.90;;;;;;5033289;28;20445;-49